sensor_id;sensor_type;location;lat;lon;timestamp;pressure;altitude;pressure_sealevel;temperature;humidity
73101;BME280;61288;53.446;-2.266;2023-05-23T00:00:25;102444.44;;;12.82;72.67
73101;BME280;61288;53.446;-2.266;2023-05-23T00:02:50;102456.69;;;12.79;72.63
73101;BME280;61288;53.446;-2.266;2023-05-23T00:05:17;102451.47;;;12.79;72.87
73101;BME280;61288;53.446;-2.266;2023-05-23T00:07:48;102458.47;;;12.77;72.90
73101;BME280;61288;53.446;-2.266;2023-05-23T00:10:14;102454.19;;;12.73;73.45
73101;BME280;61288;53.446;-2.266;2023-05-23T00:12:39;102455.94;;;12.72;72.77
73101;BME280;61288;53.446;-2.266;2023-05-23T00:15:07;102457.66;;;12.73;72.64
73101;BME280;61288;53.446;-2.266;2023-05-23T00:17:34;102456.78;;;12.74;72.54
73101;BME280;61288;53.446;-2.266;2023-05-23T00:20:02;102461.09;;;12.75;72.85
73101;BME280;61288;53.446;-2.266;2023-05-23T00:22:28;102462.78;;;12.78;72.69
73101;BME280;61288;53.446;-2.266;2023-05-23T00:24:54;102471.34;;;12.81;72.81
73101;BME280;61288;53.446;-2.266;2023-05-23T00:27:22;102468.72;;;12.83;73.43
73101;BME280;61288;53.446;-2.266;2023-05-23T00:29:47;102465.25;;;12.84;72.90
73101;BME280;61288;53.446;-2.266;2023-05-23T00:32:13;102469.50;;;12.86;72.88
73101;BME280;61288;53.446;-2.266;2023-05-23T00:34:38;102460.81;;;12.88;73.00
73101;BME280;61288;53.446;-2.266;2023-05-23T00:37:04;102460.81;;;12.88;72.98
73101;BME280;61288;53.446;-2.266;2023-05-23T00:39:29;102469.47;;;12.88;73.13
73101;BME280;61288;53.446;-2.266;2023-05-23T00:41:55;102458.19;;;12.89;74.89
73101;BME280;61288;53.446;-2.266;2023-05-23T00:44:22;102461.69;;;12.88;75.27
73101;BME280;61288;53.446;-2.266;2023-05-23T00:46:51;102460.81;;;12.88;75.00
73101;BME280;61288;53.446;-2.266;2023-05-23T00:49:21;102451.28;;;12.88;75.12
73101;BME280;61288;53.446;-2.266;2023-05-23T00:51:47;102459.06;;;12.88;74.73
73101;BME280;61288;53.446;-2.266;2023-05-23T00:54:36;102457.38;;;12.87;75.22
73101;BME280;61288;53.446;-2.266;2023-05-23T00:57:02;102456.53;;;12.85;75.25
73101;BME280;61288;53.446;-2.266;2023-05-23T00:59:27;102451.41;;;12.82;74.33
73101;BME280;61288;53.446;-2.266;2023-05-23T01:01:55;102461.81;;;12.82;74.36
73101;BME280;61288;53.446;-2.266;2023-05-23T01:04:21;102463.59;;;12.80;73.51
73101;BME280;61288;53.446;-2.266;2023-05-23T01:06:54;102466.19;;;12.80;74.09
73101;BME280;61288;53.446;-2.266;2023-05-23T01:09:21;102458.41;;;12.80;74.50
73101;BME280;61288;53.446;-2.266;2023-05-23T01:15:09;102461.88;;;12.79;74.69
73101;BME280;61288;53.446;-2.266;2023-05-23T01:17:58;102468.88;;;12.77;74.20
73101;BME280;61288;53.446;-2.266;2023-05-23T01:20:27;102461.91;;;12.77;74.48
73101;BME280;61288;53.446;-2.266;2023-05-23T01:28:11;102469.91;;;12.68;76.57
73101;BME280;61288;53.446;-2.266;2023-05-23T01:30:40;102481.22;;;12.65;76.37
73101;BME280;61288;53.446;-2.266;2023-05-23T01:33:09;102480.44;;;12.62;76.83
73101;BME280;61288;53.446;-2.266;2023-05-23T01:35:36;102475.19;;;12.63;76.02
73101;BME280;61288;53.446;-2.266;2023-05-23T01:38:05;102482.94;;;12.66;75.35
73101;BME280;61288;53.446;-2.266;2023-05-23T01:40:31;102482.09;;;12.66;74.65
73101;BME280;61288;53.446;-2.266;2023-05-23T01:42:56;102476.91;;;12.64;74.51
73101;BME280;61288;53.446;-2.266;2023-05-23T01:45:24;102485.59;;;12.63;73.88
73101;BME280;61288;53.446;-2.266;2023-05-23T01:47:51;102489.97;;;12.63;73.93
73101;BME280;61288;53.446;-2.266;2023-05-23T01:50:18;102496.06;;;12.62;72.34
73101;BME280;61288;53.446;-2.266;2023-05-23T01:52:45;102495.13;;;12.64;72.75
73101;BME280;61288;53.446;-2.266;2023-05-23T01:55:11;102497.72;;;12.64;73.11
73101;BME280;61288;53.446;-2.266;2023-05-23T01:57:43;102502.91;;;12.64;72.95
73101;BME280;61288;53.446;-2.266;2023-05-23T02:00:12;102499.47;;;12.64;71.79
73101;BME280;61288;53.446;-2.266;2023-05-23T02:02:39;102507.28;;;12.62;72.10
73101;BME280;61288;53.446;-2.266;2023-05-23T02:05:05;102507.34;;;12.59;70.94
73101;BME280;61288;53.446;-2.266;2023-05-23T02:07:31;102507.34;;;12.59;71.38
73101;BME280;61288;53.446;-2.266;2023-05-23T02:09:56;102505.66;;;12.58;70.85
73101;BME280;61288;53.446;-2.266;2023-05-23T02:12:22;102508.31;;;12.55;71.52
73101;BME280;61288;53.446;-2.266;2023-05-23T02:14:48;102499.56;;;12.57;71.95
73101;BME280;61288;53.446;-2.266;2023-05-23T02:17:14;102506.56;;;12.55;73.00
73101;BME280;61288;53.446;-2.266;2023-05-23T02:19:41;102511.00;;;12.50;73.18
73101;BME280;61288;53.446;-2.266;2023-05-23T02:22:06;102512.81;;;12.47;74.06
73101;BME280;61288;53.446;-2.266;2023-05-23T02:24:31;102511.09;;;12.46;73.96
73101;BME280;61288;53.446;-2.266;2023-05-23T02:26:57;102507.63;;;12.47;73.54
73101;BME280;61288;53.446;-2.266;2023-05-23T02:29:22;102504.13;;;12.48;73.44
73101;BME280;61288;53.446;-2.266;2023-05-23T02:31:48;102502.38;;;12.48;73.35
73101;BME280;61288;53.446;-2.266;2023-05-23T02:34:13;102501.53;;;12.48;73.79
73101;BME280;61288;53.446;-2.266;2023-05-23T02:36:39;102508.50;;;12.46;74.40
73101;BME280;61288;53.446;-2.266;2023-05-23T02:39:05;102511.19;;;12.39;75.17
73101;BME280;61288;53.446;-2.266;2023-05-23T02:41:31;102513.06;;;12.33;76.45
73101;BME280;61288;53.446;-2.266;2023-05-23T02:43:57;102499.31;;;12.27;76.12
73101;BME280;61288;53.446;-2.266;2023-05-23T02:46:23;102505.41;;;12.25;75.37
73101;BME280;61288;53.446;-2.266;2023-05-23T02:48:49;102503.78;;;12.19;76.75
73101;BME280;61288;53.446;-2.266;2023-05-23T02:51:14;102503.06;;;12.12;76.53
73101;BME280;61288;53.446;-2.266;2023-05-23T02:53:40;102497.09;;;12.06;77.78
73101;BME280;61288;53.446;-2.266;2023-05-23T02:56:06;102492.81;;;12.00;78.68
73101;BME280;61288;53.446;-2.266;2023-05-23T02:58:32;102492.88;;;11.97;78.29
73101;BME280;61288;53.446;-2.266;2023-05-23T03:01:00;102494.72;;;11.90;78.18
73101;BME280;61288;53.446;-2.266;2023-05-23T03:03:26;102503.38;;;11.91;77.73
73101;BME280;61288;53.446;-2.266;2023-05-23T03:05:53;102501.69;;;11.88;77.91
73101;BME280;61288;53.446;-2.266;2023-05-23T03:08:19;102495.69;;;11.84;77.45
73101;BME280;61288;53.446;-2.266;2023-05-23T03:10:44;102495.88;;;11.74;79.46
73101;BME280;61288;53.446;-2.266;2023-05-23T03:13:10;102499.47;;;11.65;80.44
73101;BME280;61288;53.446;-2.266;2023-05-23T03:15:35;102502.13;;;11.62;80.14
73101;BME280;61288;53.446;-2.266;2023-05-23T03:18:01;102493.50;;;11.60;80.29
73101;BME280;61288;53.446;-2.266;2023-05-23T03:20:26;102498.75;;;11.56;80.58
73101;BME280;61288;53.446;-2.266;2023-05-23T03:22:52;102498.81;;;11.53;79.59
73101;BME280;61288;53.446;-2.266;2023-05-23T03:25:17;102503.22;;;11.47;81.02
73101;BME280;61288;53.446;-2.266;2023-05-23T03:27:43;102496.38;;;11.41;80.41
73101;BME280;61288;53.446;-2.266;2023-05-23T03:30:09;102501.59;;;11.39;80.66
73101;BME280;61288;53.446;-2.266;2023-05-23T03:32:35;102500.72;;;11.40;80.90
73101;BME280;61288;53.446;-2.266;2023-05-23T03:35:00;102493.81;;;11.38;81.12
73101;BME280;61288;53.446;-2.266;2023-05-23T03:37:26;102494.72;;;11.37;80.27
73101;BME280;61288;53.446;-2.266;2023-05-23T03:39:51;102487.81;;;11.36;81.03
73101;BME280;61288;53.446;-2.266;2023-05-23T03:42:17;102492.16;;;11.34;81.35
73101;BME280;61288;53.446;-2.266;2023-05-23T03:44:42;102485.28;;;11.31;80.42
73101;BME280;61288;53.446;-2.266;2023-05-23T03:47:08;102488.72;;;11.33;80.54
73101;BME280;61288;53.446;-2.266;2023-05-23T03:49:33;102488.72;;;11.33;80.30
73101;BME280;61288;53.446;-2.266;2023-05-23T03:51:59;102492.19;;;11.32;81.23
73101;BME280;61288;53.446;-2.266;2023-05-23T03:54:24;102493.91;;;11.33;81.34
73101;BME280;61288;53.446;-2.266;2023-05-23T03:56:50;102493.97;;;11.30;82.45
73101;BME280;61288;53.446;-2.266;2023-05-23T03:59:16;102484.47;;;11.29;81.79
73101;BME280;61288;53.446;-2.266;2023-05-23T04:01:41;102490.53;;;11.26;82.01
73101;BME280;61288;53.446;-2.266;2023-05-23T04:04:07;102493.13;;;11.26;82.12
73101;BME280;61288;53.446;-2.266;2023-05-23T04:06:32;102494.88;;;11.26;83.07
73101;BME280;61288;53.446;-2.266;2023-05-23T04:08:57;102497.47;;;11.26;83.32
73101;BME280;61288;53.446;-2.266;2023-05-23T04:11:23;102501.81;;;11.24;83.17
73101;BME280;61288;53.446;-2.266;2023-05-23T04:13:48;102507.88;;;11.24;82.55
73101;BME280;61288;53.446;-2.266;2023-05-23T04:16:16;102502.69;;;11.23;82.30
73101;BME280;61288;53.446;-2.266;2023-05-23T04:18:41;102507.09;;;11.19;82.80
73101;BME280;61288;53.446;-2.266;2023-05-23T04:21:07;102503.63;;;11.19;82.84
73101;BME280;61288;53.446;-2.266;2023-05-23T04:23:34;102507.09;;;11.18;82.82
73101;BME280;61288;53.446;-2.266;2023-05-23T04:25:59;102510.56;;;11.18;82.96
73101;BME280;61288;53.446;-2.266;2023-05-23T04:28:25;102511.44;;;11.17;82.75
73101;BME280;61288;53.446;-2.266;2023-05-23T04:33:19;102512.28;;;11.18;83.82
73101;BME280;61288;53.446;-2.266;2023-05-23T04:35:45;102518.31;;;11.21;83.32
73101;BME280;61288;53.446;-2.266;2023-05-23T04:38:11;102516.53;;;11.23;82.83
73101;BME280;61288;53.446;-2.266;2023-05-23T04:40:37;102515.63;;;11.26;82.95
73101;BME280;61288;53.446;-2.266;2023-05-23T04:43:03;102516.50;;;11.28;82.44
73101;BME280;61288;53.446;-2.266;2023-05-23T04:45:29;102509.50;;;11.32;82.39
73101;BME280;61288;53.446;-2.266;2023-05-23T04:47:54;102507.72;;;11.35;83.12
73101;BME280;61288;53.446;-2.266;2023-05-23T04:50:20;102508.50;;;11.40;82.23
73101;BME280;61288;53.446;-2.266;2023-05-23T04:52:48;102505.84;;;11.45;81.53
73101;BME280;61288;53.446;-2.266;2023-05-23T04:55:14;102507.53;;;11.49;83.37
73101;BME280;61288;53.446;-2.266;2023-05-23T04:57:40;102510.84;;;11.56;82.64
73101;BME280;61288;53.446;-2.266;2023-05-23T05:00:06;102509.97;;;11.60;82.59
73101;BME280;61288;53.446;-2.266;2023-05-23T05:02:35;102518.53;;;11.64;82.52
73101;BME280;61288;53.446;-2.266;2023-05-23T05:05:02;102517.59;;;11.69;81.52
73101;BME280;61288;53.446;-2.266;2023-05-23T05:07:29;102514.91;;;11.74;81.02
73101;BME280;61288;53.446;-2.266;2023-05-23T05:09:55;102511.41;;;11.78;80.55
73101;BME280;61288;53.446;-2.266;2023-05-23T05:12:21;102523.41;;;11.84;80.16
73101;BME280;61288;53.446;-2.266;2023-05-23T05:14:47;102517.28;;;11.88;79.91
73101;BME280;61288;53.446;-2.266;2023-05-23T05:17:12;102518.03;;;11.95;79.67
73101;BME280;61288;53.446;-2.266;2023-05-23T05:19:38;102518.84;;;11.97;79.46
73101;BME280;61288;53.446;-2.266;2023-05-23T05:22:03;102511.81;;;12.05;79.03
73101;BME280;61288;53.446;-2.266;2023-05-23T05:24:29;102513.47;;;12.09;79.40
73101;BME280;61288;53.446;-2.266;2023-05-23T05:26:56;102516.94;;;12.11;81.00
73101;BME280;61288;53.446;-2.266;2023-05-23T05:29:23;102522.97;;;12.12;80.33
73101;BME280;61288;53.446;-2.266;2023-05-23T05:31:49;102523.72;;;12.17;80.23
73101;BME280;61288;53.446;-2.266;2023-05-23T05:34:16;102527.25;;;12.15;81.56
73101;BME280;61288;53.446;-2.266;2023-05-23T05:36:42;102522.00;;;12.18;81.86
73101;BME280;61288;53.446;-2.266;2023-05-23T05:39:12;102524.56;;;12.21;81.07
73101;BME280;61288;53.446;-2.266;2023-05-23T05:41:39;102530.50;;;12.26;80.59
73101;BME280;61288;53.446;-2.266;2023-05-23T05:44:06;102530.50;;;12.27;81.94
73101;BME280;61288;53.446;-2.266;2023-05-23T05:46:31;102527.03;;;12.27;82.27
73101;BME280;61288;53.446;-2.266;2023-05-23T05:48:57;102523.53;;;12.28;82.29
73101;BME280;61288;53.446;-2.266;2023-05-23T05:51:22;102524.38;;;12.30;82.69
73101;BME280;61288;53.446;-2.266;2023-05-23T05:53:48;102520.00;;;12.32;82.13
73101;BME280;61288;53.446;-2.266;2023-05-23T05:56:14;102535.53;;;12.37;81.78
73101;BME280;61288;53.446;-2.266;2023-05-23T05:58:40;102526.03;;;12.34;81.42
73101;BME280;61288;53.446;-2.266;2023-05-23T06:01:05;102519.94;;;12.35;81.77
73101;BME280;61288;53.446;-2.266;2023-05-23T06:03:31;102519.81;;;12.41;81.37
73101;BME280;61288;53.446;-2.266;2023-05-23T06:05:58;102528.41;;;12.47;80.96
73101;BME280;61288;53.446;-2.266;2023-05-23T06:08:24;102528.47;;;12.44;82.09
73101;BME280;61288;53.446;-2.266;2023-05-23T06:10:50;102537.06;;;12.47;81.75
73101;BME280;61288;53.446;-2.266;2023-05-23T06:13:15;102526.56;;;12.52;81.18
73101;BME280;61288;53.446;-2.266;2023-05-23T06:15:42;102531.72;;;12.55;81.10
73101;BME280;61288;53.446;-2.266;2023-05-23T06:18:07;102532.56;;;12.55;80.38
73101;BME280;61288;53.446;-2.266;2023-05-23T06:20:33;102535.94;;;12.61;79.11
73101;BME280;61288;53.446;-2.266;2023-05-23T06:22:58;102525.44;;;12.65;79.96
73101;BME280;61288;53.446;-2.266;2023-05-23T06:25:24;102519.47;;;12.62;79.79
73101;BME280;61288;53.446;-2.266;2023-05-23T06:27:50;102519.28;;;12.69;79.88
73101;BME280;61288;53.446;-2.266;2023-05-23T06:30:16;102504.34;;;12.79;78.60
73101;BME280;61288;53.446;-2.266;2023-05-23T06:32:41;102502.50;;;12.84;79.78
73101;BME280;61288;53.446;-2.266;2023-05-23T06:35:07;102506.78;;;12.87;78.76
73101;BME280;61288;53.446;-2.266;2023-05-23T06:37:32;102520.63;;;12.89;78.39
73101;BME280;61288;53.446;-2.266;2023-05-23T06:39:58;102505.97;;;12.85;78.02
73101;BME280;61288;53.446;-2.266;2023-05-23T06:42:24;102514.56;;;12.89;78.01
73101;BME280;61288;53.446;-2.266;2023-05-23T06:44:50;102511.88;;;12.93;79.09
73101;BME280;61288;53.446;-2.266;2023-05-23T06:47:16;102511.19;;;12.83;77.50
73101;BME280;61288;53.446;-2.266;2023-05-23T06:49:41;102514.59;;;12.87;78.00
73101;BME280;61288;53.446;-2.266;2023-05-23T06:52:07;102510.34;;;12.83;77.70
73101;BME280;61288;53.446;-2.266;2023-05-23T06:54:32;102514.53;;;12.90;77.63
73101;BME280;61288;53.446;-2.266;2023-05-23T06:56:58;102519.31;;;13.09;77.15
73101;BME280;61288;53.446;-2.266;2023-05-23T06:59:23;102533.03;;;13.17;78.21
73101;BME280;61288;53.446;-2.266;2023-05-23T07:01:49;102528.66;;;13.19;77.85
73101;BME280;61288;53.446;-2.266;2023-05-23T07:04:14;102538.06;;;13.25;76.70
73101;BME280;61288;53.446;-2.266;2023-05-23T07:06:40;102535.59;;;13.19;76.30
73101;BME280;61288;53.446;-2.266;2023-05-23T07:09:05;102526.56;;;12.96;77.26
73101;BME280;61288;53.446;-2.266;2023-05-23T07:11:31;102531.84;;;12.93;77.34
73101;BME280;61288;53.446;-2.266;2023-05-23T07:13:58;102536.84;;;13.02;76.53
73101;BME280;61288;53.446;-2.266;2023-05-23T07:16:23;102535.66;;;13.15;76.15
73101;BME280;61288;53.446;-2.266;2023-05-23T07:18:49;102535.59;;;13.19;77.28
73101;BME280;61288;53.446;-2.266;2023-05-23T07:21:15;102539.00;;;13.22;77.08
73101;BME280;61288;53.446;-2.266;2023-05-23T07:23:40;102550.97;;;13.29;77.38
73101;BME280;61288;53.446;-2.266;2023-05-23T07:26:06;102554.31;;;13.36;75.50
73101;BME280;61288;53.446;-2.266;2023-05-23T07:28:35;102554.41;;;13.32;76.03
73101;BME280;61288;53.446;-2.266;2023-05-23T07:31:01;102565.88;;;13.23;76.56
73101;BME280;61288;53.446;-2.266;2023-05-23T07:33:27;102569.41;;;13.20;76.61
73101;BME280;61288;53.446;-2.266;2023-05-23T07:35:52;102561.47;;;13.25;76.10
73101;BME280;61288;53.446;-2.266;2023-05-23T07:38:18;102563.00;;;13.35;77.08
73101;BME280;61288;53.446;-2.266;2023-05-23T07:40:43;102567.28;;;13.38;75.63
73101;BME280;61288;53.446;-2.266;2023-05-23T07:43:09;102564.66;;;13.39;77.58
73101;BME280;61288;53.446;-2.266;2023-05-23T07:45:34;102568.09;;;13.41;76.79
73101;BME280;61288;53.446;-2.266;2023-05-23T07:48:00;102567.97;;;13.48;76.36
73101;BME280;61288;53.446;-2.266;2023-05-23T07:50:25;102560.22;;;13.45;76.44
73101;BME280;61288;53.446;-2.266;2023-05-23T07:52:52;102558.50;;;13.42;75.18
73101;BME280;61288;53.446;-2.266;2023-05-23T07:55:17;102563.50;;;13.53;76.05
73101;BME280;61288;53.446;-2.266;2023-05-23T07:57:43;102549.50;;;13.58;75.92
73101;BME280;61288;53.446;-2.266;2023-05-23T08:00:09;102542.34;;;13.67;74.93
73101;BME280;61288;53.446;-2.266;2023-05-23T08:02:36;102529.94;;;13.78;74.86
73101;BME280;61288;53.446;-2.266;2023-05-23T08:05:01;102533.47;;;13.74;74.91
73101;BME280;61288;53.446;-2.266;2023-05-23T08:07:27;102536.72;;;13.84;74.28
73101;BME280;61288;53.446;-2.266;2023-05-23T08:09:52;102542.56;;;13.94;73.44
73101;BME280;61288;53.446;-2.266;2023-05-23T08:12:19;102545.81;;;14.02;72.47
73101;BME280;61288;53.446;-2.266;2023-05-23T08:14:44;102544.75;;;14.11;72.18
73101;BME280;61288;53.446;-2.266;2023-05-23T08:17:11;102545.53;;;14.14;71.77
73101;BME280;61288;53.446;-2.266;2023-05-23T08:19:37;102547.84;;;14.25;71.17
73101;BME280;61288;53.446;-2.266;2023-05-23T08:22:03;102542.31;;;14.38;71.04
73101;BME280;61288;53.446;-2.266;2023-05-23T08:24:29;102544.75;;;14.44;71.95
73101;BME280;61288;53.446;-2.266;2023-05-23T08:26:55;102546.06;;;14.59;70.57
73101;BME280;61288;53.446;-2.266;2023-05-23T08:29:20;102544.97;;;14.68;68.94
73101;BME280;61288;53.446;-2.266;2023-05-23T08:31:46;102549.22;;;14.72;69.23
73101;BME280;61288;53.446;-2.266;2023-05-23T08:34:12;102541.22;;;14.78;69.78
73101;BME280;61288;53.446;-2.266;2023-05-23T08:36:38;102546.91;;;14.93;68.64
73101;BME280;61288;53.446;-2.266;2023-05-23T08:39:04;102551.28;;;14.91;69.38
73101;BME280;61288;53.446;-2.266;2023-05-23T08:41:30;102545.03;;;14.96;68.76
73101;BME280;61288;53.446;-2.266;2023-05-23T08:43:56;102538.06;;;14.97;67.46
73101;BME280;61288;53.446;-2.266;2023-05-23T08:46:22;102531.88;;;14.99;66.99
73101;BME280;61288;53.446;-2.266;2023-05-23T08:48:51;102535.19;;;15.06;68.77
73101;BME280;61288;53.446;-2.266;2023-05-23T08:51:18;102533.78;;;14.94;66.44
73101;BME280;61288;53.446;-2.266;2023-05-23T08:53:47;102535.41;;;14.98;65.19
73101;BME280;61288;53.446;-2.266;2023-05-23T08:56:12;102533.78;;;14.94;65.40
73101;BME280;61288;53.446;-2.266;2023-05-23T08:58:40;102542.50;;;14.95;66.09
73101;BME280;61288;53.446;-2.266;2023-05-23T09:01:09;102536.31;;;14.97;66.14
73101;BME280;61288;53.446;-2.266;2023-05-23T09:03:37;102532.50;;;15.08;65.21
73101;BME280;61288;53.446;-2.266;2023-05-23T09:06:05;102537.72;;;15.08;66.10
73101;BME280;61288;53.446;-2.266;2023-05-23T09:08:32;102533.06;;;15.19;65.04
73101;BME280;61288;53.446;-2.266;2023-05-23T09:10:57;102529.25;;;15.29;63.32
73101;BME280;61288;53.446;-2.266;2023-05-23T09:13:23;102524.59;;;15.39;64.93
73101;BME280;61288;53.446;-2.266;2023-05-23T09:16:03;102524.63;;;15.38;64.78
73101;BME280;61288;53.446;-2.266;2023-05-23T09:18:36;102524.97;;;15.55;64.82
73101;BME280;61288;53.446;-2.266;2023-05-23T09:21:03;102526.31;;;15.67;66.30
73101;BME280;61288;53.446;-2.266;2023-05-23T09:23:32;102526.06;;;15.75;66.67
73101;BME280;61288;53.446;-2.266;2023-05-23T09:26:02;102537.00;;;15.86;65.97
73101;BME280;61288;53.446;-2.266;2023-05-23T09:28:29;102532.84;;;15.81;66.94
73101;BME280;61288;53.446;-2.266;2023-05-23T09:31:02;102527.16;;;15.68;68.78
73101;BME280;61288;53.446;-2.266;2023-05-23T09:33:48;102535.88;;;15.68;67.78
73101;BME280;61288;53.446;-2.266;2023-05-23T09:36:18;102541.34;;;15.60;67.36
73101;BME280;61288;53.446;-2.266;2023-05-23T09:38:45;102542.56;;;15.49;68.11
73101;BME280;61288;53.446;-2.266;2023-05-23T09:41:11;102539.22;;;15.45;69.43
73101;BME280;61288;53.446;-2.266;2023-05-23T09:46:18;102540.47;;;15.33;69.02
73101;BME280;61288;53.446;-2.266;2023-05-23T09:48:46;102531.56;;;15.39;69.44
73101;BME280;61288;53.446;-2.266;2023-05-23T09:51:12;102529.47;;;15.50;68.17
73101;BME280;61288;53.446;-2.266;2023-05-23T09:53:38;102530.47;;;15.73;68.30
73101;BME280;61288;53.446;-2.266;2023-05-23T09:56:03;102535.59;;;16.03;68.78
73101;BME280;61288;53.446;-2.266;2023-05-23T09:58:31;102527.13;;;16.22;66.88
73101;BME280;61288;53.446;-2.266;2023-05-23T10:00:59;102524.97;;;16.33;66.68
73101;BME280;61288;53.446;-2.266;2023-05-23T10:03:43;102523.69;;;16.45;65.39
73101;BME280;61288;53.446;-2.266;2023-05-23T10:06:25;102530.13;;;16.60;67.40
73101;BME280;61288;53.446;-2.266;2023-05-23T10:09:00;102527.78;;;16.76;67.11
73101;BME280;61288;53.446;-2.266;2023-05-23T10:14:08;102520.50;;;16.84;65.24
73101;BME280;61288;53.446;-2.266;2023-05-23T10:17:06;102515.88;;;16.91;65.42
73101;BME280;61288;53.446;-2.266;2023-05-23T10:19:59;102511.72;;;16.85;64.01
73101;BME280;61288;53.446;-2.266;2023-05-23T10:22:27;102515.91;;;16.67;65.25
73101;BME280;61288;53.446;-2.266;2023-05-23T10:24:55;102508.22;;;16.63;65.84
73101;BME280;61288;53.446;-2.266;2023-05-23T10:27:22;102515.50;;;16.54;66.25
73101;BME280;61288;53.446;-2.266;2023-05-23T10:29:48;102510.19;;;16.32;66.08
73101;BME280;61288;53.446;-2.266;2023-05-23T10:32:14;102509.91;;;16.40;66.70
73101;BME280;61288;53.446;-2.266;2023-05-23T10:34:50;102512.16;;;16.51;64.27
73101;BME280;61288;53.446;-2.266;2023-05-23T10:38:23;102505.78;;;16.82;64.44
73101;BME280;61288;53.446;-2.266;2023-05-23T10:45:20;102506.34;;;17.78;62.97
73101;BME280;61288;53.446;-2.266;2023-05-23T10:47:48;102508.72;;;17.84;61.71
73101;BME280;61288;53.446;-2.266;2023-05-23T10:50:29;102505.16;;;17.64;60.86
73101;BME280;61288;53.446;-2.266;2023-05-23T10:52:59;102494.47;;;17.48;62.38
73101;BME280;61288;53.446;-2.266;2023-05-23T10:55:25;102504.84;;;17.29;62.71
73101;BME280;61288;53.446;-2.266;2023-05-23T10:58:14;102502.91;;;17.12;63.96
73101;BME280;61288;53.446;-2.266;2023-05-23T11:00:49;102495.84;;;17.14;63.39
73101;BME280;61288;53.446;-2.266;2023-05-23T11:03:15;102495.38;;;17.47;63.57
73101;BME280;61288;53.446;-2.266;2023-05-23T11:05:46;102500.19;;;17.79;60.14
73101;BME280;61288;53.446;-2.266;2023-05-23T11:08:14;102504.16;;;18.10;60.52
73101;BME280;61288;53.446;-2.266;2023-05-23T11:10:58;102507.41;;;18.55;58.72
73101;BME280;61288;53.446;-2.266;2023-05-23T11:13:24;102500.44;;;18.35;59.23
73101;BME280;61288;53.446;-2.266;2023-05-23T11:15:50;102494.53;;;18.10;58.39
73101;BME280;61288;53.446;-2.266;2023-05-23T11:18:25;102503.22;;;17.90;60.42
73101;BME280;61288;53.446;-2.266;2023-05-23T11:20:53;102508.38;;;17.92;60.64
73101;BME280;61288;53.446;-2.266;2023-05-23T11:23:20;102508.59;;;18.28;63.29
73101;BME280;61288;53.446;-2.266;2023-05-23T11:25:50;102503.56;;;18.62;59.62
73101;BME280;61288;53.446;-2.266;2023-05-23T11:28:18;102505.41;;;18.79;59.75
73101;BME280;61288;53.446;-2.266;2023-05-23T11:30:48;102499.50;;;18.93;58.90
73101;BME280;61288;53.446;-2.266;2023-05-23T11:33:14;102486.47;;;19.11;58.03
73101;BME280;61288;53.446;-2.266;2023-05-23T11:35:47;102490.09;;;19.08;55.60
73101;BME280;61288;53.446;-2.266;2023-05-23T11:38:15;102490.59;;;19.34;58.15
73101;BME280;61288;53.446;-2.266;2023-05-23T11:40:44;102493.38;;;19.48;55.96
73101;BME280;61288;53.446;-2.266;2023-05-23T11:43:12;102490.81;;;19.65;57.91
73101;BME280;61288;53.446;-2.266;2023-05-23T11:45:39;102491.91;;;19.60;56.84
73101;BME280;61288;53.446;-2.266;2023-05-23T11:48:13;102496.06;;;19.12;56.28
73101;BME280;61288;53.446;-2.266;2023-05-23T11:50:51;102499.31;;;19.17;58.20
73101;BME280;61288;53.446;-2.266;2023-05-23T11:53:18;102498.28;;;19.19;57.47
73101;BME280;61288;53.446;-2.266;2023-05-23T11:55:50;102494.94;;;19.35;56.08
73101;BME280;61288;53.446;-2.266;2023-05-23T11:58:19;102495.13;;;19.30;53.64
73101;BME280;61288;53.446;-2.266;2023-05-23T12:00:45;102493.59;;;19.26;53.69
73101;BME280;61288;53.446;-2.266;2023-05-23T12:03:11;102507.22;;;19.70;55.88
73101;BME280;61288;53.446;-2.266;2023-05-23T12:05:36;102494.56;;;19.78;54.00
73101;BME280;61288;53.446;-2.266;2023-05-23T12:08:02;102492.44;;;20.02;51.46
73101;BME280;61288;53.446;-2.266;2023-05-23T12:10:28;102494.38;;;20.16;54.29
73101;BME280;61288;53.446;-2.266;2023-05-23T12:12:54;102494.59;;;20.61;55.16
73101;BME280;61288;53.446;-2.266;2023-05-23T12:15:24;102492.91;;;20.76;53.85
73101;BME280;61288;53.446;-2.266;2023-05-23T12:17:52;102499.94;;;20.76;51.28
73101;BME280;61288;53.446;-2.266;2023-05-23T12:20:19;102485.00;;;20.60;52.24
73101;BME280;61288;53.446;-2.266;2023-05-23T12:22:50;102488.59;;;20.26;52.61
73101;BME280;61288;53.446;-2.266;2023-05-23T12:25:18;102489.00;;;20.18;50.45
73101;BME280;61288;53.446;-2.266;2023-05-23T12:27:44;102487.13;;;20.20;54.55
73101;BME280;61288;53.446;-2.266;2023-05-23T12:30:12;102484.72;;;19.99;51.57
73101;BME280;61288;53.446;-2.266;2023-05-23T12:32:39;102486.53;;;20.15;52.78
73101;BME280;61288;53.446;-2.266;2023-05-23T12:35:10;102490.00;;;19.99;52.98
73101;BME280;61288;53.446;-2.266;2023-05-23T12:37:40;102487.88;;;19.88;50.87
73101;BME280;61288;53.446;-2.266;2023-05-23T12:40:17;102483.09;;;19.97;53.98
73101;BME280;61288;53.446;-2.266;2023-05-23T12:42:50;102487.94;;;20.22;52.22
73101;BME280;61288;53.446;-2.266;2023-05-23T12:45:20;102480.13;;;20.37;51.82
73101;BME280;61288;53.446;-2.266;2023-05-23T12:47:46;102486.31;;;20.19;51.62
73101;BME280;61288;53.446;-2.266;2023-05-23T12:50:11;102475.19;;;20.14;50.33
73101;BME280;61288;53.446;-2.266;2023-05-23T12:52:37;102478.75;;;20.13;49.63
73101;BME280;61288;53.446;-2.266;2023-05-23T12:55:04;102479.78;;;20.27;52.41
73101;BME280;61288;53.446;-2.266;2023-05-23T12:57:32;102490.75;;;20.51;51.55
73101;BME280;61288;53.446;-2.266;2023-05-23T12:59:58;102482.00;;;20.34;50.45
73101;BME280;61288;53.446;-2.266;2023-05-23T13:02:23;102488.75;;;20.56;50.90